createdAt,value
2022-11-04T00:00:50.250Z,14.27
2022-11-04T00:01:51.971Z,14.31
2022-11-04T00:02:53.708Z,14.36
2022-11-04T00:03:55.369Z,14.40
2022-11-04T00:04:56.831Z,14.43
2022-11-04T00:06:00.957Z,14.49
2022-11-04T00:07:22.383Z,14.56
2022-11-04T00:08:23.875Z,14.59
2022-11-04T00:09:28.823Z,14.61
2022-11-04T00:10:50.653Z,14.65
2022-11-04T00:12:11.056Z,14.66
2022-11-04T00:13:12.665Z,14.70
2022-11-04T00:14:14.425Z,14.64
2022-11-04T00:15:34.450Z,14.60
2022-11-04T00:16:54.701Z,14.56
2022-11-04T00:17:56.306Z,14.58
2022-11-04T00:18:57.793Z,14.60
2022-11-04T00:20:17.937Z,14.61
2022-11-04T00:21:37.873Z,14.63
2022-11-04T00:22:58.754Z,14.65
2022-11-04T00:24:18.723Z,14.62
2022-11-04T00:25:38.639Z,14.60
2022-11-04T00:26:58.785Z,14.61
2022-11-04T00:28:25.870Z,14.65
2022-11-04T00:29:27.310Z,14.61
2022-11-04T00:30:28.854Z,14.63
2022-11-04T00:31:48.857Z,14.60
2022-11-04T00:33:08.750Z,14.60
2022-11-04T00:34:10.311Z,14.62
2022-11-04T00:35:11.947Z,14.70
2022-11-04T00:36:13.449Z,14.73
2022-11-04T00:37:14.924Z,14.77
2022-11-04T00:38:16.851Z,14.78
2022-11-04T00:39:18.381Z,14.83
2022-11-04T00:40:19.857Z,14.87
2022-11-04T00:41:28.045Z,14.90
2022-11-04T00:42:30.048Z,14.89
2022-11-04T00:43:31.597Z,14.79
2022-11-04T00:44:33.057Z,14.78
2022-11-04T00:45:34.528Z,14.79
2022-11-04T00:46:36.085Z,14.84
2022-11-04T00:47:37.574Z,14.83
2022-11-04T00:48:39.070Z,14.82
2022-11-04T00:49:40.571Z,14.82
2022-11-04T00:50:42.218Z,14.83
2022-11-04T00:51:43.744Z,14.88
2022-11-04T00:52:45.173Z,14.88
2022-11-04T00:53:46.750Z,14.86
2022-11-04T00:54:48.202Z,14.84
2022-11-04T00:55:49.685Z,14.87
2022-11-04T00:56:51.191Z,14.85
2022-11-04T00:57:52.686Z,14.87
2022-11-04T00:58:54.131Z,14.89
2022-11-04T00:59:55.616Z,14.94
2022-11-04T01:00:57.103Z,14.97
2022-11-04T01:01:58.733Z,14.98
2022-11-04T01:03:00.975Z,15.02
2022-11-04T01:04:02.462Z,14.99
2022-11-04T01:05:03.994Z,14.99
2022-11-04T01:06:05.698Z,15.02
2022-11-04T01:07:07.193Z,15.01
2022-11-04T01:08:08.657Z,15.05
2022-11-04T01:09:10.898Z,15.06
2022-11-04T01:10:13.020Z,15.04
2022-11-04T01:11:15.510Z,15.01
2022-11-04T01:12:17.159Z,15.02
2022-11-04T01:13:18.630Z,14.97
2022-11-04T01:14:20.142Z,14.96
2022-11-04T01:15:21.695Z,14.98
2022-11-04T01:16:23.508Z,15.01
2022-11-04T01:17:25.112Z,15.03
2022-11-04T01:18:26.659Z,15.09
2022-11-04T01:19:28.150Z,15.11
2022-11-04T01:20:29.614Z,15.10
2022-11-04T01:21:31.226Z,15.09
2022-11-04T01:22:32.761Z,15.08
2022-11-04T01:23:34.340Z,15.05
2022-11-04T01:24:35.891Z,15.05
2022-11-04T01:25:41.274Z,15.04
2022-11-04T01:26:42.781Z,15.02
2022-11-04T01:27:44.262Z,15.04
2022-11-04T01:28:45.752Z,14.97
2022-11-04T01:29:47.341Z,14.90
2022-11-04T01:30:48.806Z,14.90
2022-11-04T01:31:50.257Z,14.95
2022-11-04T01:32:51.746Z,15.00
2022-11-04T01:33:53.339Z,14.94
2022-11-04T01:34:54.850Z,14.97
2022-11-04T01:35:59.184Z,15.01
2022-11-04T01:37:00.678Z,15.07
2022-11-04T01:38:02.191Z,15.09
2022-11-04T01:39:03.819Z,15.11
2022-11-04T01:40:05.573Z,15.11
2022-11-04T01:41:07.237Z,15.14
2022-11-04T01:42:10.804Z,15.13
2022-11-04T01:43:16.302Z,15.15
2022-11-04T01:44:36.774Z,15.11
2022-11-04T01:45:38.261Z,15.16
2022-11-04T01:46:46.900Z,15.15
2022-11-04T01:48:00.630Z,15.14
2022-11-04T01:49:08.413Z,15.12
2022-11-04T01:50:16.263Z,15.13
2022-11-04T01:51:17.832Z,15.13
2022-11-04T01:52:29.848Z,15.09
2022-11-04T01:53:34.891Z,15.14
2022-11-04T01:54:36.379Z,15.09
2022-11-04T01:55:40.270Z,15.04
2022-11-04T01:56:41.781Z,15.00
2022-11-04T01:57:44.099Z,14.97
2022-11-04T01:58:50.792Z,14.96
2022-11-04T01:59:52.249Z,14.98
2022-11-04T02:00:53.867Z,14.95
2022-11-04T02:01:55.864Z,14.95
2022-11-04T02:02:59.456Z,14.92
2022-11-04T02:04:20.133Z,14.89
2022-11-04T02:05:21.787Z,14.75
2022-11-04T02:06:23.302Z,14.77
2022-11-04T02:07:24.843Z,14.74
2022-11-04T02:08:26.378Z,14.73
2022-11-04T02:09:28.325Z,14.75
2022-11-04T02:10:30.349Z,14.77
2022-11-04T02:11:50.372Z,14.78
2022-11-04T02:12:51.942Z,14.82
2022-11-04T02:13:53.450Z,14.84
2022-11-04T02:14:54.918Z,14.83
2022-11-04T02:16:14.947Z,14.84
2022-11-04T02:17:19.198Z,14.85
2022-11-04T02:18:26.434Z,14.90
2022-11-04T02:19:27.878Z,14.82
2022-11-04T02:20:29.301Z,14.79
2022-11-04T02:21:43.067Z,14.80
2022-11-04T02:22:44.526Z,14.85
2022-11-04T02:23:48.786Z,14.86
2022-11-04T02:25:13.077Z,14.87
2022-11-04T02:26:36.383Z,14.90
2022-11-04T02:27:37.969Z,14.92
2022-11-04T02:28:58.473Z,14.86
2022-11-04T02:30:18.714Z,14.95
2022-11-04T02:31:55.698Z,14.98
2022-11-04T02:33:06.838Z,14.95
2022-11-04T02:34:14.082Z,14.94
2022-11-04T02:35:27.451Z,14.95
2022-11-04T02:36:46.554Z,14.96
2022-11-04T02:39:00.621Z,14.93
2022-11-04T02:40:08.049Z,14.96
2022-11-04T02:41:28.508Z,14.94
2022-11-04T02:42:36.028Z,14.95
2022-11-04T02:43:37.518Z,14.93
2022-11-04T02:44:41.234Z,14.91
2022-11-04T02:45:44.158Z,14.90
2022-11-04T02:46:48.415Z,14.90
2022-11-04T02:47:51.086Z,14.89
2022-11-04T02:48:52.540Z,14.90
2022-11-04T02:50:14.400Z,14.92
2022-11-04T02:51:19.943Z,14.86
2022-11-04T02:52:35.666Z,14.85
2022-11-04T02:53:39.009Z,14.80
2022-11-04T02:54:44.763Z,14.82
2022-11-04T02:55:47.193Z,14.79
2022-11-04T02:56:50.014Z,14.73
2022-11-04T02:57:51.898Z,14.69
2022-11-04T02:58:57.589Z,14.68
2022-11-04T03:00:03.265Z,14.64
2022-11-04T03:01:05.209Z,14.59
2022-11-04T03:02:07.969Z,14.55
2022-11-04T03:03:11.577Z,14.56
2022-11-04T03:04:16.209Z,14.59
2022-11-04T03:05:18.461Z,14.56
2022-11-04T03:06:21.140Z,14.51
2022-11-04T03:07:24.387Z,14.48
2022-11-04T03:08:27.015Z,14.50
2022-11-04T03:09:28.517Z,14.52
2022-11-04T03:10:37.076Z,14.52
2022-11-04T03:11:38.502Z,14.53
2022-11-04T03:12:40.894Z,14.48
2022-11-04T03:13:44.450Z,14.41
2022-11-04T03:14:50.150Z,14.39
2022-11-04T03:15:52.883Z,14.43
2022-11-04T03:16:54.786Z,14.47
2022-11-04T03:18:14.807Z,14.43
2022-11-04T03:19:17.015Z,14.45
2022-11-04T03:20:20.478Z,14.41
2022-11-04T03:21:22.034Z,14.39
2022-11-04T03:22:24.128Z,14.39
2022-11-04T03:23:25.861Z,14.40
2022-11-04T03:24:27.320Z,14.41
2022-11-04T03:25:30.846Z,14.47
2022-11-04T03:26:34.880Z,14.45
2022-11-04T03:27:41.940Z,14.39
2022-11-04T03:28:43.637Z,14.47
2022-11-04T03:31:26.317Z,14.50
2022-11-04T03:32:47.104Z,14.45
2022-11-04T03:33:49.869Z,14.49
2022-11-04T03:34:51.377Z,14.49
2022-11-04T03:35:52.890Z,14.49
2022-11-04T03:36:54.370Z,14.46
2022-11-04T03:37:55.874Z,14.41
2022-11-04T03:38:57.391Z,14.40
2022-11-04T03:39:58.841Z,14.38
2022-11-04T03:41:00.336Z,14.37
2022-11-04T03:42:02.511Z,14.32
2022-11-04T03:43:11.163Z,14.30
2022-11-04T03:44:12.870Z,14.26
2022-11-04T03:45:14.305Z,14.25
2022-11-04T03:46:15.823Z,14.27
2022-11-04T03:47:17.637Z,14.25
2022-11-04T03:48:19.177Z,14.25
2022-11-04T03:49:23.424Z,14.26
2022-11-04T03:50:31.624Z,14.25
2022-11-04T03:51:33.175Z,14.28
2022-11-04T03:52:35.790Z,14.26
2022-11-04T03:53:37.284Z,14.24
2022-11-04T03:54:38.780Z,14.24
2022-11-04T03:55:43.887Z,14.22
2022-11-04T03:56:53.025Z,14.14
2022-11-04T03:58:04.491Z,14.14
2022-11-04T03:59:12.219Z,14.13
2022-11-04T04:00:14.209Z,14.10
2022-11-04T04:01:37.587Z,14.16
2022-11-04T04:02:47.903Z,14.16
2022-11-04T04:03:54.586Z,14.17
2022-11-04T04:04:57.066Z,14.17
2022-11-04T04:06:09.640Z,14.19
2022-11-04T04:07:12.512Z,14.15
2022-11-04T04:08:13.950Z,14.13
2022-11-04T04:09:19.076Z,14.04
2022-11-04T04:10:49.863Z,14.11
2022-11-04T04:11:51.402Z,14.12
2022-11-04T04:12:53.452Z,14.07
2022-11-04T04:13:56.857Z,14.01
2022-11-04T04:15:00.647Z,14.02
2022-11-04T04:16:08.034Z,14.02
2022-11-04T04:17:21.854Z,14.01
2022-11-04T04:18:25.584Z,13.99
2022-11-04T04:19:27.021Z,13.99
2022-11-04T04:20:28.706Z,13.96
2022-11-04T04:21:31.674Z,13.97
2022-11-04T04:22:37.282Z,13.98
2022-11-04T04:23:57.486Z,14.01
2022-11-04T04:25:18.476Z,14.05
2022-11-04T04:26:40.062Z,14.06
2022-11-04T04:27:43.586Z,14.00
2022-11-04T04:28:49.966Z,13.98
2022-11-04T04:29:51.490Z,13.99
2022-11-04T04:30:57.685Z,14.01
2022-11-04T04:32:01.794Z,13.95
2022-11-04T04:33:05.437Z,13.86
2022-11-04T04:34:06.907Z,13.80
2022-11-04T04:35:26.886Z,13.75
2022-11-04T04:36:28.331Z,13.67
2022-11-04T04:37:29.823Z,13.61
2022-11-04T04:38:51.098Z,13.55
2022-11-04T04:40:12.281Z,13.52
2022-11-04T04:41:33.416Z,13.48
2022-11-04T04:42:53.526Z,13.44
2022-11-04T04:44:13.371Z,13.42
2022-11-04T04:45:19.444Z,13.37
2022-11-04T04:46:20.913Z,13.30
2022-11-04T04:47:22.972Z,13.30
2022-11-04T04:48:24.690Z,13.33
2022-11-04T04:49:35.053Z,13.35
2022-11-04T04:50:37.433Z,13.30
2022-11-04T04:51:39.738Z,13.30
2022-11-04T04:52:42.045Z,13.28
2022-11-04T04:53:43.501Z,13.34
2022-11-04T04:54:45.152Z,13.39
2022-11-04T04:55:46.634Z,13.42
2022-11-04T04:56:48.086Z,13.46
2022-11-04T04:57:49.660Z,13.43
2022-11-04T04:58:51.112Z,13.52
2022-11-04T04:59:52.649Z,13.50
2022-11-04T05:00:54.250Z,13.46
2022-11-04T05:01:55.863Z,13.46
2022-11-04T05:02:57.352Z,13.48
2022-11-04T05:03:58.830Z,13.45
2022-11-04T05:05:01.336Z,13.47
2022-11-04T05:06:02.886Z,13.41
2022-11-04T05:07:04.386Z,13.37
2022-11-04T05:08:06.939Z,13.35
2022-11-04T05:09:09.054Z,13.33
2022-11-04T05:10:11.059Z,13.36
2022-11-04T05:11:12.608Z,13.32
2022-11-04T05:12:14.119Z,13.29
2022-11-04T05:13:28.305Z,13.23
2022-11-04T05:14:30.020Z,13.13
2022-11-04T05:15:31.571Z,13.21
2022-11-04T05:16:38.013Z,13.27
2022-11-04T05:17:42.013Z,13.32
2022-11-04T05:18:43.541Z,13.36
2022-11-04T05:19:44.985Z,13.39
2022-11-04T05:20:46.418Z,13.39
2022-11-04T05:21:47.902Z,13.41
2022-11-04T05:22:49.370Z,13.42
2022-11-04T05:23:50.873Z,13.44
2022-11-04T05:24:52.333Z,13.47
2022-11-04T05:25:53.765Z,13.51
2022-11-04T05:26:55.251Z,13.54
2022-11-04T05:27:59.514Z,13.53
2022-11-04T05:29:01.037Z,13.55
2022-11-04T05:30:02.710Z,13.55
2022-11-04T05:31:04.718Z,13.52
2022-11-04T05:32:06.174Z,13.51
2022-11-04T05:33:08.098Z,13.51
2022-11-04T05:34:12.577Z,13.44
2022-11-04T05:35:14.093Z,13.41
2022-11-04T05:36:16.033Z,13.45
2022-11-04T05:37:17.495Z,13.49
2022-11-04T05:38:18.985Z,13.54
2022-11-04T05:39:20.497Z,13.57
2022-11-04T05:40:21.968Z,13.60
2022-11-04T05:41:26.293Z,13.62
2022-11-04T05:42:27.777Z,13.64
2022-11-04T05:43:29.353Z,13.66
2022-11-04T05:44:30.852Z,13.65
2022-11-04T05:45:32.344Z,13.68
2022-11-04T05:46:33.882Z,13.68
2022-11-04T05:47:35.485Z,13.70
2022-11-04T05:48:40.504Z,13.69
2022-11-04T05:49:42.404Z,13.69
2022-11-04T05:50:43.935Z,13.68
2022-11-04T05:51:45.393Z,13.69
2022-11-04T05:52:46.891Z,13.70
2022-11-04T05:53:48.393Z,13.71
2022-11-04T05:54:49.835Z,13.72
2022-11-04T05:55:51.500Z,13.71
2022-11-04T05:56:52.983Z,13.74
2022-11-04T05:57:54.522Z,13.73
2022-11-04T05:58:56.196Z,13.76
2022-11-04T05:59:57.646Z,13.77
2022-11-04T06:01:17.878Z,13.78
2022-11-04T06:02:19.393Z,13.78
2022-11-04T06:03:21.006Z,13.80
2022-11-04T06:04:22.664Z,13.80
2022-11-04T06:05:24.463Z,13.81
2022-11-04T06:06:26.528Z,13.79
2022-11-04T06:07:28.067Z,13.80
2022-11-04T06:08:31.508Z,13.80
2022-11-04T06:09:41.929Z,13.80
2022-11-04T06:10:43.553Z,13.79
2022-11-04T06:11:45.433Z,13.79
2022-11-04T06:12:46.934Z,13.79
2022-11-04T06:13:48.585Z,13.77
2022-11-04T06:14:50.090Z,13.77
2022-11-04T06:15:51.580Z,13.77
2022-11-04T06:16:53.138Z,13.77
2022-11-04T06:17:54.644Z,13.77
2022-11-04T06:18:59.968Z,13.75
2022-11-04T06:20:06.494Z,13.75
2022-11-04T06:21:14.030Z,13.74
2022-11-04T06:22:15.938Z,13.73
2022-11-04T06:23:17.415Z,13.72
2022-11-04T06:24:18.952Z,13.72
2022-11-04T06:25:20.414Z,13.71
2022-11-04T06:26:25.379Z,13.70
2022-11-04T06:27:29.512Z,13.69
2022-11-04T06:28:30.989Z,13.63
2022-11-04T06:29:32.647Z,13.60
2022-11-04T06:30:34.172Z,13.57
2022-11-04T06:31:35.913Z,13.58
2022-11-04T06:32:37.377Z,13.58
2022-11-04T06:33:38.861Z,13.59
2022-11-04T06:34:40.389Z,13.60
2022-11-04T06:35:42.347Z,13.58
2022-11-04T06:36:43.937Z,13.53
2022-11-04T06:37:45.392Z,13.49
2022-11-04T06:38:46.936Z,13.45
2022-11-04T06:39:48.474Z,13.43
2022-11-04T06:40:49.940Z,13.45
2022-11-04T06:41:51.896Z,13.45
2022-11-04T06:42:54.489Z,13.48
2022-11-04T06:43:56.005Z,13.50
2022-11-04T06:44:57.454Z,13.44
2022-11-04T06:45:59.562Z,13.43
2022-11-04T06:47:01.781Z,13.41
2022-11-04T06:48:03.338Z,13.40
2022-11-04T06:49:05.288Z,13.39
2022-11-04T06:50:07.061Z,13.36
2022-11-04T06:51:08.498Z,13.36
2022-11-04T06:52:09.942Z,13.38
2022-11-04T06:53:11.625Z,13.37
2022-11-04T06:54:13.310Z,13.35
2022-11-04T06:55:15.250Z,13.33
2022-11-04T06:56:16.946Z,13.35
2022-11-04T06:57:18.384Z,13.33
2022-11-04T06:58:19.934Z,13.35
2022-11-04T06:59:21.488Z,13.34
2022-11-04T07:00:23.030Z,13.35
2022-11-04T07:01:26.002Z,13.32
2022-11-04T07:02:27.754Z,13.31
2022-11-04T07:03:29.961Z,13.32
2022-11-04T07:04:31.433Z,13.34
2022-11-04T07:05:33.259Z,13.34
2022-11-04T07:06:37.247Z,13.36
2022-11-04T07:07:41.292Z,13.35
2022-11-04T07:08:42.744Z,13.38
2022-11-04T07:09:44.271Z,13.36
2022-11-04T07:10:45.845Z,13.34
2022-11-04T07:11:47.345Z,13.30
2022-11-04T07:12:48.877Z,13.32
2022-11-04T07:13:50.394Z,13.36
2022-11-04T07:14:52.037Z,13.29
2022-11-04T07:15:53.630Z,13.21
2022-11-04T07:16:55.088Z,13.22
2022-11-04T07:17:56.776Z,13.23
2022-11-04T07:18:58.291Z,13.25
2022-11-04T07:20:00.304Z,13.27
2022-11-04T07:21:04.547Z,13.29
2022-11-04T07:22:10.281Z,13.35
2022-11-04T07:23:11.815Z,13.31
2022-11-04T07:24:13.364Z,13.35
2022-11-04T07:25:15.112Z,13.34
2022-11-04T07:26:16.660Z,13.35
2022-11-04T07:27:18.213Z,13.36
2022-11-04T07:28:20.155Z,13.37
2022-11-04T07:29:22.009Z,13.38
2022-11-04T07:30:23.577Z,13.40
2022-11-04T07:31:25.516Z,13.40
2022-11-04T07:32:27.101Z,13.37
2022-11-04T07:33:28.633Z,13.40
2022-11-04T07:34:30.196Z,13.43
2022-11-04T07:35:31.771Z,13.43
2022-11-04T07:36:33.357Z,13.44
2022-11-04T07:37:34.958Z,13.42
2022-11-04T07:38:36.506Z,13.38
2022-11-04T07:39:37.973Z,13.40
2022-11-04T07:40:39.525Z,13.35
2022-11-04T07:41:40.992Z,13.38
2022-11-04T07:42:42.700Z,13.34
2022-11-04T07:43:51.152Z,13.35
2022-11-04T07:44:52.635Z,13.34
2022-11-04T07:46:04.202Z,13.36
2022-11-04T07:47:05.909Z,13.39
2022-11-04T07:48:08.141Z,13.36
2022-11-04T07:49:09.841Z,13.30
2022-11-04T07:50:11.879Z,13.30
2022-11-04T07:51:16.566Z,13.29
2022-11-04T07:52:18.301Z,13.20
2022-11-04T07:53:19.849Z,13.17
2022-11-04T07:54:21.697Z,13.17
2022-11-04T07:55:26.266Z,13.23
2022-11-04T07:56:27.883Z,13.26
2022-11-04T07:57:29.417Z,13.29
2022-11-04T07:58:31.114Z,13.30
2022-11-04T07:59:33.787Z,13.34
2022-11-04T08:00:35.360Z,13.37
2022-11-04T08:01:37.041Z,13.39
2022-11-04T08:02:38.820Z,13.45
2022-11-04T08:03:40.514Z,13.42
2022-11-04T08:04:42.532Z,13.45
2022-11-04T08:05:44.101Z,13.49
2022-11-04T08:06:45.588Z,13.49
2022-11-04T08:07:47.143Z,13.52
2022-11-04T08:08:48.687Z,13.50
2022-11-04T08:09:50.248Z,13.46
2022-11-04T08:10:54.810Z,13.47
2022-11-04T08:11:56.275Z,13.50
2022-11-04T08:12:57.835Z,13.52
2022-11-04T08:13:59.468Z,13.57
2022-11-04T08:15:01.154Z,13.61
2022-11-04T08:16:03.670Z,13.64
2022-11-04T08:17:05.468Z,13.68
2022-11-04T08:18:07.183Z,13.69
2022-11-04T08:19:08.960Z,13.67
2022-11-04T08:20:10.859Z,13.68
2022-11-04T08:21:12.561Z,13.72
2022-11-04T08:22:14.346Z,13.77
2022-11-04T08:23:16.432Z,13.76
2022-11-04T08:24:18.085Z,13.78
2022-11-04T08:25:19.661Z,13.71
2022-11-04T08:26:23.404Z,13.76
2022-11-04T08:27:25.374Z,13.81
2022-11-04T08:28:27.226Z,13.82
2022-11-04T08:29:28.739Z,13.73
2022-11-04T08:30:30.268Z,13.72
2022-11-04T08:31:31.898Z,13.74
2022-11-04T08:32:33.495Z,13.67
2022-11-04T08:33:35.884Z,13.67
2022-11-04T08:34:37.827Z,13.69
2022-11-04T08:35:41.894Z,13.74
2022-11-04T08:36:43.521Z,13.79
2022-11-04T08:37:45.140Z,13.86
2022-11-04T08:38:46.716Z,13.92
2022-11-04T08:39:48.338Z,13.97
2022-11-04T08:40:49.927Z,14.00
2022-11-04T08:41:53.563Z,14.06
2022-11-04T08:42:55.230Z,14.13
2022-11-04T08:44:01.130Z,14.20
2022-11-04T08:45:02.924Z,14.24
2022-11-04T08:46:05.226Z,14.27
2022-11-04T08:47:06.749Z,14.30
2022-11-04T08:48:08.825Z,14.38
2022-11-04T08:49:13.861Z,14.47
2022-11-04T08:50:18.141Z,14.51
2022-11-04T08:51:20.501Z,14.56
2022-11-04T08:52:22.124Z,14.61
2022-11-04T08:53:23.587Z,14.65
2022-11-04T08:54:25.519Z,14.68
2022-11-04T08:55:28.996Z,14.69
2022-11-04T08:56:31.538Z,14.68
2022-11-04T08:57:33.085Z,14.70
2022-11-04T08:58:34.588Z,14.72
2022-11-04T08:59:36.250Z,14.70
2022-11-04T09:00:37.786Z,14.72
2022-11-04T09:01:39.534Z,14.71
2022-11-04T09:02:41.234Z,14.68
2022-11-04T09:03:42.904Z,14.58
2022-11-04T09:04:44.524Z,14.50
2022-11-04T09:05:47.549Z,14.37
2022-11-04T09:06:51.010Z,14.38
2022-11-04T09:08:01.851Z,14.38
2022-11-04T09:09:04.818Z,14.33
2022-11-04T09:10:06.630Z,14.35
2022-11-04T09:11:08.526Z,14.37
2022-11-04T09:12:10.650Z,14.34
2022-11-04T09:13:12.696Z,14.34
2022-11-04T09:14:14.706Z,14.39
2022-11-04T09:15:16.280Z,14.43
2022-11-04T09:16:18.000Z,14.49
2022-11-04T09:17:19.598Z,14.52
2022-11-04T09:18:21.107Z,14.54
2022-11-04T09:19:22.922Z,14.57
2022-11-04T09:20:24.533Z,14.57
2022-11-04T09:21:26.581Z,14.58
2022-11-04T09:22:28.417Z,14.62
2022-11-04T09:23:29.943Z,14.66
2022-11-04T09:24:32.027Z,14.69
2022-11-04T09:25:33.689Z,14.65
2022-11-04T09:26:35.255Z,14.68
2022-11-04T09:27:36.871Z,14.71
2022-11-04T09:28:38.450Z,14.76
2022-11-04T09:29:41.210Z,14.78
2022-11-04T09:30:42.728Z,14.81
2022-11-04T09:31:44.402Z,14.82
2022-11-04T09:32:51.495Z,14.85
2022-11-04T09:33:54.888Z,14.75
2022-11-04T09:34:56.485Z,14.86
2022-11-04T09:35:57.975Z,14.88
2022-11-04T09:36:59.516Z,14.91
2022-11-04T09:38:01.693Z,14.96
2022-11-04T09:39:03.319Z,14.99
2022-11-04T09:40:05.220Z,15.00
2022-11-04T09:41:12.066Z,15.04
2022-11-04T09:42:17.625Z,15.07
2022-11-04T09:43:38.025Z,15.09
2022-11-04T09:45:19.934Z,15.08
2022-11-04T09:46:13.428Z,15.11
2022-11-04T09:47:20.713Z,15.04
2022-11-04T09:48:26.173Z,15.06
2022-11-04T09:49:28.494Z,15.11
2022-11-04T09:50:59.488Z,15.15
2022-11-04T09:52:01.051Z,15.21
2022-11-04T09:53:06.898Z,15.23
2022-11-04T09:54:11.014Z,15.27
2022-11-04T09:55:23.392Z,15.26
2022-11-04T09:56:26.020Z,15.26
2022-11-04T09:57:27.700Z,15.26
2022-11-04T09:58:30.150Z,15.19
2022-11-04T09:59:34.315Z,15.21
2022-11-04T10:00:36.036Z,15.25
2022-11-04T10:01:50.828Z,15.26
2022-11-04T10:02:52.975Z,15.29
2022-11-04T10:04:03.630Z,15.35
2022-11-04T10:05:05.356Z,15.40
2022-11-04T10:06:06.910Z,15.46
2022-11-04T10:07:27.654Z,15.48
2022-11-04T10:08:41.526Z,15.39
2022-11-04T10:10:01.244Z,15.39
2022-11-04T10:11:07.642Z,15.35
2022-11-04T10:12:12.919Z,15.36
2022-11-04T10:13:20.187Z,15.31
2022-11-04T10:14:21.769Z,15.31
2022-11-04T10:15:29.506Z,15.29
2022-11-04T10:16:31.140Z,15.27
2022-11-04T10:17:35.261Z,15.26
2022-11-04T10:18:39.976Z,15.30
2022-11-04T10:19:47.402Z,15.27
2022-11-04T10:20:50.782Z,15.29
2022-11-04T10:21:58.712Z,15.29
2022-11-04T10:23:07.772Z,15.26
2022-11-04T10:24:15.478Z,15.20
2022-11-04T10:25:21.369Z,15.20
2022-11-04T10:26:28.870Z,15.21
2022-11-04T10:27:31.814Z,15.18
2022-11-04T10:28:36.114Z,15.18
2022-11-04T10:29:38.339Z,15.19
2022-11-04T10:30:40.080Z,15.21
2022-11-04T10:31:41.536Z,15.22
2022-11-04T10:32:53.028Z,15.22
2022-11-04T10:33:55.365Z,15.21
2022-11-04T10:35:01.220Z,15.23
2022-11-04T10:36:09.325Z,15.23
2022-11-04T10:37:10.945Z,15.27
2022-11-04T10:38:12.521Z,15.32
2022-11-04T10:39:18.304Z,15.35
2022-11-04T10:40:25.453Z,15.37
2022-11-04T10:41:27.002Z,15.39
2022-11-04T10:42:28.593Z,15.40
2022-11-04T10:43:34.269Z,15.43
2022-11-04T10:44:36.007Z,15.43
2022-11-04T10:45:40.541Z,15.42
2022-11-04T10:46:44.810Z,15.36
2022-11-04T10:47:56.873Z,15.36
2022-11-04T10:49:03.533Z,15.40
2022-11-04T10:50:31.420Z,15.43
2022-11-04T10:51:33.340Z,15.46
2022-11-04T10:52:36.297Z,15.48
2022-11-04T10:53:37.875Z,15.50
2022-11-04T10:54:57.718Z,15.52
2022-11-04T10:55:59.298Z,15.55
2022-11-04T10:57:00.898Z,15.54
2022-11-04T10:58:02.806Z,15.54
2022-11-04T10:59:24.885Z,15.56
2022-11-04T11:00:52.819Z,15.57
2022-11-04T11:01:58.401Z,15.52
2022-11-04T11:03:00.141Z,15.52
2022-11-04T11:04:02.030Z,15.52
2022-11-04T11:05:18.829Z,15.51
2022-11-04T11:06:22.819Z,15.51
2022-11-04T11:07:24.401Z,15.52
2022-11-04T11:08:33.069Z,15.47
2022-11-04T11:09:34.650Z,15.48
2022-11-04T11:10:36.197Z,15.50
2022-11-04T11:11:39.218Z,15.51
2022-11-04T11:12:52.042Z,15.54
2022-11-04T11:13:53.821Z,15.54
2022-11-04T11:14:55.358Z,15.55
2022-11-04T11:16:16.148Z,15.55
2022-11-04T11:17:19.284Z,15.53
2022-11-04T11:18:28.633Z,15.55
2022-11-04T11:19:32.999Z,15.57
2022-11-04T11:20:37.762Z,15.56
2022-11-04T11:21:42.564Z,15.50
2022-11-04T11:22:44.621Z,15.51
2022-11-04T11:23:51.149Z,15.54
2022-11-04T11:24:52.642Z,15.56
2022-11-04T11:25:54.138Z,15.59
2022-11-04T11:26:56.686Z,15.61
2022-11-04T11:28:07.910Z,15.63
2022-11-04T11:29:10.742Z,15.68
2022-11-04T11:30:42.003Z,15.71
2022-11-04T11:31:43.548Z,15.72
2022-11-04T11:32:45.014Z,15.74
2022-11-04T11:33:48.179Z,15.76
2022-11-04T11:34:49.705Z,15.75
2022-11-04T11:35:51.986Z,15.75
2022-11-04T11:36:54.386Z,15.71
2022-11-04T11:37:55.908Z,15.69
2022-11-04T11:39:01.330Z,15.72
2022-11-04T11:40:02.867Z,15.76
2022-11-04T11:41:29.235Z,15.78
2022-11-04T11:42:30.747Z,15.81
2022-11-04T11:43:32.800Z,15.77
2022-11-04T11:44:52.922Z,15.77
2022-11-04T11:45:55.093Z,15.78
2022-11-04T11:46:56.786Z,15.81
2022-11-04T11:47:58.594Z,15.81
2022-11-04T11:49:03.723Z,15.76
2022-11-04T11:50:26.072Z,15.72
2022-11-04T11:51:34.445Z,15.65
2022-11-04T11:52:38.150Z,15.59
2022-11-04T11:53:45.908Z,15.63
2022-11-04T11:54:47.651Z,15.55
2022-11-04T11:56:09.703Z,15.50
2022-11-04T11:57:25.501Z,15.56
2022-11-04T12:01:35.546Z,15.54
2022-11-04T12:02:46.488Z,15.52
2022-11-04T12:09:46.865Z,15.74
2022-11-04T12:10:52.215Z,15.76
2022-11-04T12:12:13.190Z,15.80
2022-11-04T12:13:23.545Z,15.81
2022-11-04T12:14:29.067Z,15.83
2022-11-04T12:15:49.586Z,15.86
2022-11-04T12:16:51.212Z,15.87
2022-11-04T12:18:11.387Z,15.89
2022-11-04T12:19:21.884Z,15.90
2022-11-04T12:20:43.823Z,15.92
2022-11-04T12:21:47.380Z,15.94
2022-11-04T12:22:55.000Z,15.95
2022-11-04T12:24:01.214Z,15.97
2022-11-04T12:25:08.556Z,15.96
2022-11-04T12:26:11.150Z,15.97
2022-11-04T12:27:22.163Z,15.99
2022-11-04T12:28:36.542Z,15.99
2022-11-04T12:29:40.640Z,16.01
2022-11-04T12:30:54.382Z,15.99
2022-11-04T12:32:02.146Z,16.01
2022-11-04T12:33:12.520Z,16.02
2022-11-04T12:34:20.330Z,16.04
2022-11-04T12:35:40.565Z,16.07
2022-11-04T12:36:46.517Z,16.09
2022-11-04T12:38:03.405Z,16.10
2022-11-04T12:39:14.553Z,16.10
2022-11-04T12:40:16.045Z,16.13
2022-11-04T12:42:06.344Z,16.12
2022-11-04T12:43:12.328Z,16.15
2022-11-04T12:44:23.797Z,16.16
2022-11-04T12:45:46.859Z,16.18
2022-11-04T12:47:00.786Z,16.21
2022-11-04T12:48:04.727Z,16.22
2022-11-04T12:49:08.902Z,16.24
2022-11-04T12:50:22.618Z,16.26
2022-11-04T12:51:24.070Z,16.29
2022-11-04T12:52:40.777Z,16.31
2022-11-04T12:53:51.188Z,16.34
2022-11-04T12:54:58.870Z,16.37
2022-11-04T12:56:04.895Z,16.40
2022-11-04T12:57:24.497Z,16.42
2022-11-04T12:58:25.943Z,16.44
2022-11-04T12:59:37.242Z,16.47
2022-11-04T13:00:38.788Z,16.49
2022-11-04T13:01:48.143Z,16.52
2022-11-04T13:02:52.255Z,16.53
2022-11-04T13:03:53.725Z,16.54
2022-11-04T13:05:04.353Z,16.56
2022-11-04T13:06:06.951Z,16.56
2022-11-04T13:07:10.468Z,16.58
2022-11-04T13:08:37.908Z,16.59
2022-11-04T13:09:46.935Z,16.59
2022-11-04T13:10:56.180Z,16.59
2022-11-04T13:11:58.742Z,16.59
2022-11-04T13:13:02.037Z,16.56
2022-11-04T13:14:06.030Z,16.56
2022-11-04T13:15:33.956Z,16.56
2022-11-04T13:16:41.722Z,16.57
2022-11-04T13:17:43.708Z,16.55
2022-11-04T13:18:47.992Z,16.57
2022-11-04T13:19:50.535Z,16.59
2022-11-04T13:21:02.683Z,16.60
2022-11-04T13:22:08.348Z,16.61
2022-11-04T13:23:13.179Z,16.63
2022-11-04T13:24:17.658Z,16.60
2022-11-04T13:25:25.231Z,16.60
2022-11-04T13:26:26.725Z,16.60
2022-11-04T13:27:30.912Z,16.61
2022-11-04T13:28:32.394Z,16.63
2022-11-04T13:29:34.683Z,16.63
2022-11-04T13:30:37.852Z,16.64
2022-11-04T13:31:48.381Z,16.65
2022-11-04T13:33:10.465Z,16.65
2022-11-04T13:34:33.240Z,16.65
2022-11-04T13:35:53.566Z,16.65
2022-11-04T13:37:21.193Z,16.58
2022-11-04T13:38:24.382Z,16.55
2022-11-04T13:39:27.173Z,16.56
2022-11-04T13:40:31.665Z,16.56
2022-11-04T13:41:39.080Z,16.57
2022-11-04T13:42:43.570Z,16.59
2022-11-04T13:43:50.381Z,16.55
2022-11-04T13:44:52.651Z,16.52
2022-11-04T13:45:55.086Z,16.52
2022-11-04T13:47:00.142Z,16.54
2022-11-04T13:48:01.663Z,16.55
2022-11-04T13:49:06.592Z,16.52
2022-11-04T13:50:13.934Z,16.54
2022-11-04T13:51:15.421Z,16.54
2022-11-04T13:52:16.891Z,16.42
2022-11-04T13:53:18.368Z,16.49
2022-11-04T13:54:53.065Z,16.46
2022-11-04T13:55:56.244Z,16.45
2022-11-04T13:57:21.826Z,16.46
2022-11-04T13:58:26.132Z,16.46
2022-11-04T13:59:28.662Z,16.47
2022-11-04T14:00:33.196Z,16.46
2022-11-04T14:01:35.756Z,16.48
2022-11-04T14:02:38.700Z,16.42
2022-11-04T14:03:48.501Z,16.42
2022-11-04T14:04:49.973Z,16.38
2022-11-04T14:06:00.540Z,16.37
2022-11-04T14:07:04.028Z,16.37
2022-11-04T14:08:15.242Z,16.29
2022-11-04T14:09:24.173Z,16.34
2022-11-04T14:10:44.194Z,16.33
2022-11-04T14:12:04.226Z,16.28